CW9044 Weather Reports


time (UTC)temp
C
wind
direction
speed
KPH
gust
KPH
rain 1hr
cm
rain 24hr
cm
rain mn
cm
humidity
%
barometer
mb
20190419064454 23 124 3.2 22.5 0.00 0.00 0.00 82 1017.7
20190419063454 23 124 1.6 4.8 0.00 0.00 0.00 82 1017.6
20190419062453 22 112 3.2 8.0 0.00 0.00 0.00 85 1017.6
20190419061454 22 113 4.8 8.0 0.00 0.00 0.00 85 1017.6
20190419060454 22 85 3.2 9.7 0.00 0.00 0.00 84 1017.6
20190419055455 22 88 6.4 19.3 0.00 0.00 0.00 85 1017.6
20190419054454 22 93 9.7 19.3 0.00 0.00 0.00 84 1017.7
20190419053454 22 85 11.3 25.7 0.00 0.00 0.00 83 1017.7
20190419052454 22 87 9.7 24.1 0.00 0.00 0.00 82 1017.5
20190419051454 22 90 11.3 19.3 0.00 0.00 0.00 84 1017.6
20190419050454 23 82 8.0 24.1 0.00 0.00 0.00 82 1017.4
20190419045454 23 73 14.5 25.7 0.00 0.00 0.00 81 1017.4
20190419044454 23 76 9.7 19.3 0.00 0.00 0.00 80 1017.3
20190419043455 23 75 11.3 22.5 0.00 0.00 0.00 78 1017.5
20190419042455 25 51 11.3 25.7 0.00 0.00 0.00 75 1017.4
20190419041454 25 63 11.3 22.5 0.00 0.00 0.00 72 1017.3
20190419040458 25 76 9.7 22.5 0.00 0.00 0.00 72 1017.3
20190419035455 26 70 9.7 19.3 0.00 0.00 0.00 72 1017.5
20190419034454 26 133 4.8 16.1 0.00 0.00 0.00 73 1017.6
20190419033454 25 95 8.0 19.3 0.00 0.00 0.00 75 1017.9
20190419032455 25 86 9.7 16.1 0.00 0.00 0.00 78 1017.9
20190419031455 25 100 8.0 19.3 0.00 0.00 0.00 81 1018.0
20190419030455 23 112 4.8 12.9 0.00 0.00 0.00 88 1018.2
20190419025455 22 123 6.4 14.5 0.00 0.00 0.00 90 1018.5
20190419024454 22 83 8.0 22.5 0.00 0.00 0.00 85 1018.8
20190419023455 25 97 8.0 19.3 0.00 0.00 0.00 74 1018.5
20190419022454 25 102 11.3 19.3 0.00 0.00 0.00 73 1018.6
20190419021454 25 93 8.0 19.3 0.00 0.00 0.00 76 1018.9
20190419020456 25 95 8.0 20.9 0.00 0.00 0.00 73 1019.0
20190419015455 25 113 8.0 20.9 0.00 0.00 0.00 76 1019.2
20190419014455 25 93 9.7 20.9 0.00 0.00 0.00 76 1019.4
20190419013454 24 89 9.7 19.3 0.00 0.00 0.00 78 1019.6
20190419012455 23 73 12.9 25.7 0.00 0.00 0.00 78 1020.0
20190419011457 23 65 4.8 20.9 0.00 0.00 0.00 79 1020.1